Impacts TAF Board INFO
FOR SITUATIONAL AWARENESS. NOT TO BE USED FOR FLIGHT PLANNING PURPOSES.
IDs:

KPNS - Pensacola Intl, FL, US

Issued at 1737 UTC 17 Jul 2018
Updated at 1937 UTC 17 Jul 2018
Potential Impact None Slight Moderate High
Time1922Z 17/20Z 17/21Z 17/22Z 17/23Z 18/00Z 18/01Z 18/02Z 18/03Z 18/04Z 18/05Z 18/06Z 18/07Z 18/08Z>>
Type OBS PRVL PRVL PRVL PRVL PRVL PRVL PRVL PRVL PRVL PRVL PRVL PRVL PRVL
VIS 10 5 5 5 5 5 5 >6 >6 >6 >6 >6 >6 >6
CIG -- 40 40 40 40 40 40 -- -- -- -- -- -- --
Cover FEW BKN BKN BKN BKN BKN BKN SCT SCT SCT SCT SCT SCT SCT
FltCat VFR MVFR MVFR MVFR MVFR MVFR MVFR VFR VFR VFR VFR VFR VFR VFR
WX VCTS TSRA TSRA TSRA TSRA TSRA TSRA -- -- -- -- -- -- --
WDir 240 250 250 250 250 250 250 320 320 320 320 320 320 320
WSpd 10 7 7 7 7 7 7 4 4 4 4 4 4 4
WGst -- -- -- -- -- -- -- -- -- -- -- -- -- --

Raw TAF
KPNS 171737Z 1718/1818 20007KT P6SM VCTS FEW028CB SCT070 OVC090
  FM172000 25007KT 5SM TSRA BKN040CB
  FM180200 32004KT P6SM SCT200
  FM181200 31006KT P6SM VCTS SCT035CB BKN100


Raw METAR
KPNS 171922Z 24010KT 10SM VCTS FEW023 29/23 A3002 RMK AO2 LTG DSNT N AND NW T02940228
KPNS 171853Z 23012KT 10SM FEW025 SCT110 31/24 A3003 RMK AO2 LTG DSNT N AND NW SLP170 T03060239
KPNS 171843Z 24013KT 10SM VCTS FEW025 SCT110 30/24 A3003 RMK AO2 LTG DSNT N AND NW T03000244
KPNS 171759Z 23011KT 10SM FEW025 SCT110 29/24 A3004 RMK AO2 LTG DSNT W AND NW T02940244
KPNS 171758Z 23011KT 10SM FEW025 SCT110 29/24 A3004 RMK AO2 LTG DSNT W AND NW T02940244
KPNS 171756Z 23011KT 10SM FEW025 BKN110 29/24 A3004 RMK AO2 LTG DSNT W T02940244
KPNS 171753Z 22009KT 10SM FEW110 29/24 A3004 RMK AO2 LTG DSNT W RAE1654B17E34 SLP174 P0000 60004 T02940244 10294 20261 58003
KPNS 171700Z 20007KT 10SM FEW028 SCT070 OVC090 28/24 A3006 RMK AO2 RAE1654 P0000 T02780244
KPNS 171653Z 20008KT 10SM -RA BKN012 BKN046 OVC090 28/25 A3006 RMK AO2 SLP180 P0002 T02780250

METAR Board
Radar Display
Forecast Discussion

FOR SITUATIONAL AWARENESS. NOT TO BE USED FOR FLIGHT PLANNING PURPOSES.